createdAt,value
2019-05-26T00:00:12.595Z,52.70
2019-05-26T00:02:41.006Z,52.50
2019-05-26T00:05:09.262Z,52.60
2019-05-26T00:07:37.822Z,52.70
2019-05-26T00:10:08.862Z,52.80
2019-05-26T00:12:37.183Z,52.80
2019-05-26T00:15:06.079Z,52.80
2019-05-26T00:17:34.342Z,52.80
2019-05-26T00:20:03.001Z,52.80
2019-05-26T00:22:31.252Z,52.80
2019-05-26T00:24:59.531Z,52.70
2019-05-26T00:27:27.802Z,52.80
2019-05-26T00:29:56.067Z,52.80
2019-05-26T00:32:24.346Z,52.80
2019-05-26T00:34:52.619Z,52.80
2019-05-26T00:37:20.926Z,52.80
2019-05-26T00:39:49.232Z,52.60
2019-05-26T00:42:17.519Z,52.60
2019-05-26T00:44:45.770Z,52.60
2019-05-26T00:47:14.076Z,52.60
2019-05-26T00:49:42.332Z,52.70
2019-05-26T00:52:10.601Z,52.80
2019-05-26T00:54:38.873Z,52.80
2019-05-26T00:57:07.183Z,52.80
2019-05-26T00:59:35.432Z,52.80
2019-05-26T01:02:03.703Z,52.80
2019-05-26T01:04:32.031Z,52.80
2019-05-26T01:07:00.323Z,52.70
2019-05-26T01:09:28.668Z,52.70
2019-05-26T01:11:56.931Z,52.70
2019-05-26T01:14:25.199Z,52.70
2019-05-26T01:16:55.792Z,52.60
2019-05-26T01:19:23.458Z,52.60
2019-05-26T01:21:51.732Z,52.70
2019-05-26T01:24:19.979Z,52.70
2019-05-26T01:26:48.246Z,52.70
2019-05-26T01:29:16.499Z,52.80
2019-05-26T01:31:44.766Z,52.90
2019-05-26T01:34:13.030Z,52.80
2019-05-26T01:36:41.307Z,52.80
2019-05-26T01:39:09.551Z,52.80
2019-05-26T01:41:37.804Z,52.80
2019-05-26T01:44:06.076Z,52.70
2019-05-26T01:46:34.498Z,52.70
2019-05-26T01:49:02.763Z,52.70
2019-05-26T01:51:31.020Z,52.70
2019-05-26T01:53:59.287Z,52.60
2019-05-26T01:56:27.542Z,52.50
2019-05-26T01:58:56.099Z,52.60
2019-05-26T02:01:24.382Z,52.80
2019-05-26T02:03:52.896Z,52.70
2019-05-26T02:06:21.151Z,52.70
2019-05-26T02:08:49.418Z,52.80
2019-05-26T02:11:17.702Z,52.80
2019-05-26T02:13:47.531Z,52.80
2019-05-26T02:16:15.791Z,52.70
2019-05-26T02:18:45.346Z,52.70
2019-05-26T02:21:14.931Z,52.70
2019-05-26T02:23:43.351Z,52.70
2019-05-26T02:26:11.594Z,52.60
2019-05-26T02:28:39.866Z,52.60
2019-05-26T02:31:08.120Z,52.50
2019-05-26T02:33:36.710Z,52.60
2019-05-26T02:36:04.965Z,52.60
2019-05-26T02:38:33.564Z,52.70
2019-05-26T02:41:01.834Z,52.70
2019-05-26T02:43:30.163Z,52.70
2019-05-26T02:45:58.420Z,52.80
2019-05-26T02:48:27.332Z,52.80
2019-05-26T02:50:55.581Z,52.80
2019-05-26T02:53:24.836Z,52.70
2019-05-26T02:55:53.294Z,52.70
2019-05-26T02:58:21.571Z,52.60
2019-05-26T03:00:49.823Z,52.60
2019-05-26T03:03:18.105Z,52.60
2019-05-26T03:05:46.420Z,52.70
2019-05-26T03:08:15.148Z,52.60
2019-05-26T03:10:43.415Z,52.50
2019-05-26T03:13:15.208Z,52.60
2019-05-26T03:15:44.993Z,52.60
2019-05-26T03:18:13.328Z,52.60
2019-05-26T03:20:41.596Z,52.60
2019-05-26T03:23:09.851Z,52.80
2019-05-26T03:25:38.191Z,53.00
2019-05-26T03:28:07.196Z,52.80
2019-05-26T03:30:35.995Z,52.70
2019-05-26T03:33:04.681Z,52.70
2019-05-26T03:35:33.055Z,52.60
2019-05-26T03:38:01.440Z,52.60
2019-05-26T03:40:29.724Z,52.60
2019-05-26T03:42:58.342Z,52.60
2019-05-26T03:45:41.866Z,52.60
2019-05-26T03:48:10.128Z,52.50
2019-05-26T03:50:38.399Z,52.60
2019-05-26T03:53:06.793Z,52.70
2019-05-26T03:55:35.202Z,52.60
2019-05-26T03:58:03.459Z,52.70
2019-05-26T04:00:31.718Z,52.70
2019-05-26T04:03:00.558Z,53.40
2019-05-26T04:05:28.845Z,52.90
2019-05-26T04:07:57.176Z,52.80
2019-05-26T04:10:25.433Z,52.70
2019-05-26T04:12:53.694Z,52.70
2019-05-26T04:15:21.964Z,52.70
2019-05-26T04:17:50.297Z,52.60
2019-05-26T04:20:18.635Z,52.60
2019-05-26T04:22:46.889Z,52.70
2019-05-26T04:25:15.147Z,52.60
2019-05-26T04:27:43.407Z,52.50
2019-05-26T04:30:12.354Z,52.60
2019-05-26T04:32:40.625Z,52.60
2019-05-26T04:35:08.956Z,52.80
2019-05-26T04:37:37.210Z,52.70
2019-05-26T04:40:25.635Z,52.80
2019-05-26T04:42:38.466Z,52.70
2019-05-26T04:45:07.462Z,52.70
2019-05-26T04:47:35.731Z,52.60
2019-05-26T04:50:05.130Z,52.60
2019-05-26T04:52:33.420Z,52.60
2019-05-26T04:55:01.678Z,52.60
2019-05-26T04:57:30.455Z,52.60
2019-05-26T04:59:59.279Z,52.60
2019-05-26T05:02:27.547Z,52.50
2019-05-26T05:04:56.108Z,52.50
2019-05-26T05:07:28.074Z,52.60
2019-05-26T05:09:54.351Z,52.60
2019-05-26T05:12:22.615Z,52.80
2019-05-26T05:14:50.946Z,52.70
2019-05-26T05:17:19.978Z,52.60
2019-05-26T05:19:48.395Z,52.60
2019-05-26T05:22:16.660Z,52.60
2019-05-26T05:24:44.911Z,52.60
2019-05-26T05:27:14.547Z,52.50
2019-05-26T05:29:42.871Z,52.60
2019-05-26T05:32:11.135Z,53.00
2019-05-26T05:34:39.395Z,52.60
2019-05-26T05:37:08.226Z,52.60
2019-05-26T05:39:36.497Z,53.20
2019-05-26T05:42:04.818Z,52.60
2019-05-26T05:44:33.071Z,52.60
2019-05-26T05:47:01.337Z,52.70
2019-05-26T05:49:30.967Z,52.60
2019-05-26T05:51:59.227Z,52.60
2019-05-26T05:54:27.482Z,52.60
2019-05-26T05:56:55.937Z,52.60
2019-05-26T05:59:24.380Z,52.60
2019-05-26T06:01:52.639Z,52.60
2019-05-26T06:04:21.370Z,52.60
2019-05-26T06:06:49.626Z,52.60
2019-05-26T06:09:17.896Z,52.60
2019-05-26T06:11:46.723Z,52.60
2019-05-26T06:14:16.371Z,52.60
2019-05-26T06:16:44.623Z,52.60
2019-05-26T06:19:12.895Z,52.60
2019-05-26T06:21:41.155Z,52.50
2019-05-26T06:24:09.414Z,52.50
2019-05-26T06:26:37.673Z,52.60
2019-05-26T06:29:05.938Z,52.50
2019-05-26T06:31:34.247Z,52.60
2019-05-26T06:34:02.637Z,52.70
2019-05-26T06:36:31.018Z,52.60
2019-05-26T06:38:59.289Z,52.60
2019-05-26T06:41:33.424Z,52.60
2019-05-26T06:43:57.527Z,52.60
2019-05-26T06:46:25.786Z,52.60
2019-05-26T06:48:54.051Z,53.20
2019-05-26T06:51:22.314Z,52.60
2019-05-26T06:53:50.587Z,52.60
2019-05-26T06:56:18.836Z,52.60
2019-05-26T06:58:47.113Z,52.60
2019-05-26T07:01:15.439Z,52.60
2019-05-26T07:03:44.383Z,52.60
2019-05-26T07:06:12.635Z,52.60
2019-05-26T07:08:40.894Z,52.60
2019-05-26T07:11:09.159Z,52.60
2019-05-26T07:13:37.673Z,53.30
2019-05-26T07:16:06.002Z,52.60
2019-05-26T07:18:34.262Z,52.60
2019-05-26T07:21:02.528Z,52.60
2019-05-26T07:23:30.778Z,52.60
2019-05-26T07:25:59.615Z,52.60
2019-05-26T07:28:27.866Z,52.60
2019-05-26T07:30:56.140Z,52.60
2019-05-26T07:33:24.391Z,52.60
2019-05-26T07:35:52.654Z,52.60
2019-05-26T07:38:20.906Z,52.60
2019-05-26T07:40:49.171Z,52.60
2019-05-26T07:43:17.426Z,52.60
2019-05-26T07:45:45.697Z,52.60
2019-05-26T07:48:14.125Z,52.60
2019-05-26T07:50:42.386Z,52.70
2019-05-26T07:53:10.663Z,52.80
2019-05-26T07:55:38.983Z,52.70
2019-05-26T07:58:07.247Z,52.70
2019-05-26T08:00:35.516Z,52.70
2019-05-26T08:03:03.827Z,52.70
2019-05-26T08:05:32.086Z,52.80
2019-05-26T08:08:12.238Z,52.80
2019-05-26T08:10:31.709Z,52.70
2019-05-26T08:12:59.971Z,52.60
2019-05-26T08:15:28.245Z,52.60
2019-05-26T08:17:56.531Z,52.70
2019-05-26T08:20:24.830Z,52.70
2019-05-26T08:22:53.371Z,52.70
2019-05-26T08:25:21.649Z,52.70
2019-05-26T08:27:49.910Z,52.80
2019-05-26T08:30:18.831Z,52.80
2019-05-26T08:32:47.099Z,52.80
2019-05-26T08:35:15.362Z,52.80
2019-05-26T08:37:43.622Z,52.80
2019-05-26T08:40:18.177Z,52.80
2019-05-26T08:42:49.958Z,52.80
2019-05-26T08:45:21.638Z,52.80
2019-05-26T08:47:49.242Z,52.70
2019-05-26T08:50:17.676Z,52.70
2019-05-26T08:52:45.935Z,52.70
2019-05-26T08:55:14.194Z,52.70
2019-05-26T08:57:42.463Z,52.70
2019-05-26T09:00:10.714Z,52.70
2019-05-26T09:02:39.006Z,52.80
2019-05-26T09:05:07.536Z,52.80
2019-05-26T09:07:35.809Z,52.80
2019-05-26T09:10:05.129Z,52.80
2019-05-26T09:12:33.722Z,52.80
2019-05-26T09:15:01.980Z,52.90
2019-05-26T09:17:30.256Z,52.80
2019-05-26T09:19:58.865Z,52.80
2019-05-26T09:22:27.443Z,52.80
2019-05-26T09:24:55.696Z,52.80
2019-05-26T09:27:23.975Z,52.60
2019-05-26T09:29:52.230Z,52.60
2019-05-26T09:32:20.492Z,52.70
2019-05-26T09:34:48.848Z,52.60
2019-05-26T09:37:17.200Z,52.60
2019-05-26T09:39:45.460Z,52.60
2019-05-26T09:42:13.711Z,52.70
2019-05-26T09:44:41.984Z,52.80
2019-05-26T09:47:10.902Z,52.70
2019-05-26T09:49:39.487Z,52.80
2019-05-26T09:52:07.749Z,52.70
2019-05-26T09:54:36.011Z,52.80
2019-05-26T09:57:04.342Z,52.80
2019-05-26T09:59:32.609Z,53.40
2019-05-26T10:02:00.940Z,52.80
2019-05-26T10:04:29.317Z,52.70
2019-05-26T10:06:57.566Z,52.70
2019-05-26T10:09:25.845Z,52.70
2019-05-26T10:11:54.568Z,52.70
2019-05-26T10:14:22.834Z,52.80
2019-05-26T10:16:51.663Z,52.80
2019-05-26T10:19:19.929Z,52.90
2019-05-26T10:21:48.184Z,52.80
2019-05-26T10:24:16.462Z,52.80
2019-05-26T10:26:45.047Z,52.80
2019-05-26T10:29:15.975Z,52.90
2019-05-26T10:31:44.776Z,52.80
2019-05-26T10:34:13.806Z,52.90
2019-05-26T10:36:42.203Z,52.80
2019-05-26T10:39:10.484Z,52.80
2019-05-26T10:41:38.808Z,52.80
2019-05-26T10:44:07.086Z,52.80
2019-05-26T10:46:35.346Z,52.90
2019-05-26T10:49:03.615Z,53.10
2019-05-26T10:51:31.875Z,53.10
2019-05-26T10:54:00.123Z,53.10
2019-05-26T10:56:28.400Z,53.00
2019-05-26T10:58:56.650Z,52.90
2019-05-26T11:01:24.955Z,52.90
2019-05-26T11:03:53.209Z,53.00
2019-05-26T11:06:22.047Z,53.10
2019-05-26T11:08:50.294Z,53.10
2019-05-26T11:11:19.226Z,53.20
2019-05-26T11:14:01.821Z,53.10
2019-05-26T11:16:18.146Z,53.20
2019-05-26T11:18:46.400Z,53.40
2019-05-26T11:21:14.669Z,53.30
2019-05-26T11:23:42.925Z,53.30
2019-05-26T11:26:11.199Z,53.30
2019-05-26T11:28:39.450Z,53.20
2019-05-26T11:31:07.730Z,53.20
2019-05-26T11:33:36.001Z,53.20
2019-05-26T11:36:04.285Z,53.20
2019-05-26T11:38:33.682Z,53.20
2019-05-26T11:41:02.281Z,53.20
2019-05-26T11:43:30.541Z,53.20
2019-05-26T11:45:58.807Z,53.20
2019-05-26T11:48:27.063Z,53.30
2019-05-26T11:50:55.322Z,53.30
2019-05-26T11:53:23.579Z,53.40
2019-05-26T11:55:51.850Z,53.40
2019-05-26T11:58:20.192Z,53.40
2019-05-26T12:00:48.453Z,53.50
2019-05-26T12:03:16.703Z,53.50
2019-05-26T12:05:45.271Z,53.50
2019-05-26T12:08:13.535Z,53.50
2019-05-26T12:10:41.791Z,53.60
2019-05-26T12:13:10.137Z,53.60
2019-05-26T12:15:38.396Z,53.60
2019-05-26T12:18:06.727Z,53.60
2019-05-26T12:20:35.063Z,53.60
2019-05-26T12:23:03.328Z,53.60
2019-05-26T12:25:31.579Z,53.50
2019-05-26T12:27:59.844Z,53.50
2019-05-26T12:30:28.103Z,53.50
2019-05-26T12:32:56.383Z,53.50
2019-05-26T12:35:26.835Z,53.90
2019-05-26T12:37:55.678Z,53.50
2019-05-26T12:40:23.936Z,53.80
2019-05-26T12:42:52.202Z,53.80
2019-05-26T12:45:20.458Z,53.80
2019-05-26T12:47:48.962Z,53.80
2019-05-26T12:50:17.221Z,53.80
2019-05-26T12:52:45.566Z,53.90
2019-05-26T12:55:13.818Z,53.80
2019-05-26T12:57:42.091Z,53.80
2019-05-26T13:00:10.431Z,54.10
2019-05-26T13:02:38.755Z,54.50
2019-05-26T13:05:07.654Z,54.40
2019-05-26T13:07:36.094Z,54.40
2019-05-26T13:10:08.984Z,54.20
2019-05-26T13:12:37.246Z,54.10
2019-05-26T13:15:07.402Z,54.10
2019-05-26T13:17:35.658Z,53.90
2019-05-26T13:20:08.631Z,54.00
2019-05-26T13:22:37.210Z,54.00
2019-05-26T13:25:07.016Z,54.10
2019-05-26T13:27:35.275Z,54.20
2019-05-26T13:30:07.983Z,54.20
2019-05-26T13:32:36.240Z,54.80
2019-05-26T13:35:07.210Z,54.50
2019-05-26T13:37:36.864Z,54.30
2019-05-26T13:40:06.814Z,54.20
2019-05-26T13:42:35.327Z,54.20
2019-05-26T13:45:19.400Z,54.20
2019-05-26T13:47:35.611Z,54.10
2019-05-26T13:50:05.184Z,54.10
2019-05-26T13:52:33.494Z,54.00
2019-05-26T13:55:01.808Z,54.20
2019-05-26T13:57:30.046Z,54.20
2019-05-26T13:59:58.979Z,54.20
2019-05-26T14:02:27.235Z,54.00
2019-05-26T14:04:55.512Z,53.90
2019-05-26T14:07:23.809Z,54.00
2019-05-26T14:09:52.139Z,54.00
2019-05-26T14:12:20.394Z,54.00
2019-05-26T14:14:48.940Z,54.10
2019-05-26T14:17:17.186Z,54.10
2019-05-26T14:19:45.462Z,54.20
2019-05-26T14:22:14.388Z,54.20
2019-05-26T14:24:53.240Z,54.20
2019-05-26T14:27:12.642Z,54.20
2019-05-26T14:29:40.907Z,53.90
2019-05-26T14:32:09.239Z,54.00
2019-05-26T14:34:37.510Z,54.20
2019-05-26T14:37:06.343Z,54.20
2019-05-26T14:39:34.607Z,54.20
2019-05-26T14:42:02.877Z,54.20
2019-05-26T14:44:31.365Z,54.20
2019-05-26T14:46:59.920Z,54.30
2019-05-26T14:49:28.180Z,54.20
2019-05-26T14:51:56.435Z,54.10
2019-05-26T14:54:25.266Z,54.10
2019-05-26T14:56:53.539Z,54.10
2019-05-26T14:59:21.795Z,54.20
2019-05-26T15:01:50.080Z,54.10
2019-05-26T15:04:18.353Z,54.10
2019-05-26T15:06:46.623Z,54.10
2019-05-26T15:09:24.891Z,54.00
2019-05-26T15:11:44.866Z,54.00
2019-05-26T15:14:13.129Z,53.90
2019-05-26T15:16:41.399Z,53.70
2019-05-26T15:19:09.650Z,53.40
2019-05-26T15:21:37.918Z,53.70
2019-05-26T15:24:06.171Z,53.70
2019-05-26T15:26:35.015Z,53.80
2019-05-26T15:29:03.272Z,53.80
2019-05-26T15:31:31.554Z,53.70
2019-05-26T15:33:59.823Z,53.70
2019-05-26T15:36:28.077Z,53.70
2019-05-26T15:38:56.862Z,53.60
2019-05-26T15:41:25.186Z,53.80
2019-05-26T15:43:53.474Z,53.80
2019-05-26T15:46:25.347Z,53.70
2019-05-26T15:48:53.052Z,53.80
2019-05-26T15:51:21.311Z,53.70
2019-05-26T15:53:49.580Z,53.60
2019-05-26T15:56:17.843Z,53.80
2019-05-26T15:58:46.106Z,53.90
2019-05-26T16:01:14.622Z,53.70
2019-05-26T16:03:43.459Z,53.90
2019-05-26T16:06:11.714Z,53.80
2019-05-26T16:08:39.979Z,53.80
2019-05-26T16:11:08.279Z,53.80
2019-05-26T16:13:36.542Z,53.70
2019-05-26T16:16:05.583Z,53.80
2019-05-26T16:18:33.842Z,53.80
2019-05-26T16:21:03.285Z,53.80
2019-05-26T16:23:31.939Z,53.70
2019-05-26T16:26:00.448Z,53.80
2019-05-26T16:28:30.293Z,53.70
2019-05-26T16:30:58.658Z,53.70
2019-05-26T16:33:26.957Z,53.80
2019-05-26T16:35:55.768Z,53.80
2019-05-26T16:38:24.242Z,54.00
2019-05-26T16:40:52.506Z,53.90
2019-05-26T16:43:21.493Z,54.10
2019-05-26T16:45:56.154Z,54.00
2019-05-26T16:48:20.760Z,54.10
2019-05-26T16:50:49.091Z,54.00
2019-05-26T16:53:17.419Z,54.00
2019-05-26T16:55:45.770Z,53.90
2019-05-26T16:58:14.031Z,53.90
2019-05-26T17:00:42.662Z,53.70
2019-05-26T17:03:11.011Z,53.70
2019-05-26T17:05:39.851Z,54.10
2019-05-26T17:08:08.126Z,54.50
2019-05-26T17:10:36.393Z,54.70
2019-05-26T17:13:04.718Z,54.50
2019-05-26T17:15:32.986Z,54.50
2019-05-26T17:18:01.237Z,54.40
2019-05-26T17:20:29.528Z,54.30
2019-05-26T17:22:57.852Z,54.20
2019-05-26T17:25:26.175Z,54.20
2019-05-26T17:27:54.432Z,54.30
2019-05-26T17:30:22.706Z,54.40
2019-05-26T17:32:51.106Z,54.40
2019-05-26T17:35:19.500Z,54.40
2019-05-26T17:37:48.124Z,54.40
2019-05-26T17:40:16.576Z,54.60
2019-05-26T17:42:44.898Z,54.50
2019-05-26T17:45:13.538Z,54.40
2019-05-26T17:47:41.794Z,54.40
2019-05-26T17:50:10.055Z,54.50
2019-05-26T17:52:38.575Z,54.50
2019-05-26T17:55:10.403Z,54.60
2019-05-26T17:57:38.768Z,54.60
2019-05-26T18:00:11.077Z,54.60
2019-05-26T18:02:39.444Z,54.70
2019-05-26T18:05:07.702Z,54.60
2019-05-26T18:07:35.959Z,54.20
2019-05-26T18:10:05.850Z,54.70
2019-05-26T18:12:34.146Z,54.80
2019-05-26T18:15:02.678Z,54.80
2019-05-26T18:17:45.824Z,54.80
2019-05-26T18:20:01.800Z,54.80
2019-05-26T18:22:30.212Z,55.10
2019-05-26T18:24:59.356Z,55.00
2019-05-26T18:27:28.039Z,55.00
2019-05-26T18:29:56.631Z,55.10
2019-05-26T18:32:24.959Z,55.10
2019-05-26T18:34:53.219Z,54.90
2019-05-26T18:37:21.499Z,55.50
2019-05-26T18:39:49.751Z,57.30
2019-05-26T18:42:18.017Z,55.90
2019-05-26T18:44:46.277Z,55.70
2019-05-26T18:47:14.548Z,57.10
2019-05-26T18:49:42.806Z,56.20
2019-05-26T18:52:11.071Z,56.10
2019-05-26T18:54:39.334Z,55.40
2019-05-26T18:57:07.610Z,55.60
2019-05-26T18:59:35.874Z,55.60
2019-05-26T19:02:04.128Z,55.40
2019-05-26T19:04:32.398Z,55.20
2019-05-26T19:07:00.655Z,55.20
2019-05-26T19:09:28.924Z,55.40
2019-05-26T19:11:57.187Z,56.70
2019-05-26T19:14:25.506Z,56.40
2019-05-26T19:16:53.840Z,56.20
2019-05-26T19:19:22.180Z,56.00
2019-05-26T19:21:50.438Z,55.70
2019-05-26T19:24:18.708Z,55.30
2019-05-26T19:26:46.958Z,55.30
2019-05-26T19:29:15.237Z,55.40
2019-05-26T19:31:43.493Z,55.20
2019-05-26T19:34:11.760Z,55.00
2019-05-26T19:36:40.010Z,55.00
2019-05-26T19:39:09.687Z,55.00
2019-05-26T19:41:39.251Z,54.90
2019-05-26T19:44:08.174Z,55.00
2019-05-26T19:46:36.438Z,55.00
2019-05-26T19:49:05.267Z,55.10
2019-05-26T19:51:33.528Z,55.20
2019-05-26T19:54:02.697Z,55.00
2019-05-26T19:56:30.959Z,55.00
2019-05-26T19:58:59.399Z,54.90
2019-05-26T20:01:27.658Z,54.90
2019-05-26T20:03:55.931Z,54.90
2019-05-26T20:06:24.190Z,54.90
2019-05-26T20:08:52.458Z,55.00
2019-05-26T20:11:20.715Z,55.10
2019-05-26T20:13:48.971Z,54.90
2019-05-26T20:16:17.238Z,55.00
2019-05-26T20:18:45.853Z,54.90
2019-05-26T20:21:14.174Z,54.90
2019-05-26T20:23:42.507Z,55.00
2019-05-26T20:26:10.775Z,55.10
2019-05-26T20:28:39.082Z,55.10
2019-05-26T20:31:07.352Z,55.20
2019-05-26T20:33:35.610Z,55.00
2019-05-26T20:36:04.197Z,55.00
2019-05-26T20:38:32.455Z,55.00
2019-05-26T20:41:00.900Z,55.00
2019-05-26T20:43:29.434Z,55.00
2019-05-26T20:45:57.704Z,54.90
2019-05-26T20:48:25.983Z,55.00
2019-05-26T20:50:54.255Z,54.90
2019-05-26T20:53:22.561Z,54.90
2019-05-26T20:55:50.832Z,54.80
2019-05-26T20:58:19.388Z,54.80
2019-05-26T21:00:47.656Z,54.80
2019-05-26T21:03:15.929Z,54.80
2019-05-26T21:05:44.254Z,54.90
2019-05-26T21:08:12.511Z,54.90
2019-05-26T21:10:40.803Z,54.80
2019-05-26T21:13:09.058Z,54.90
2019-05-26T21:15:38.706Z,54.80
2019-05-26T21:18:06.967Z,54.80
2019-05-26T21:20:36.620Z,54.80
2019-05-26T21:23:04.866Z,54.80
2019-05-26T21:25:33.128Z,54.80
2019-05-26T21:28:01.383Z,54.60
2019-05-26T21:30:29.646Z,54.70
2019-05-26T21:32:57.914Z,54.60
2019-05-26T21:35:26.172Z,54.60
2019-05-26T21:37:54.498Z,54.60
2019-05-26T21:40:22.754Z,54.80
2019-05-26T21:42:51.102Z,54.70
2019-05-26T21:45:19.358Z,54.70
2019-05-26T21:47:47.622Z,54.70
2019-05-26T21:50:17.060Z,54.80
2019-05-26T21:52:45.326Z,54.70
2019-05-26T21:55:13.918Z,54.70
2019-05-26T21:57:42.179Z,54.70
2019-05-26T22:00:12.015Z,54.60
2019-05-26T22:02:40.349Z,54.60
2019-05-26T22:05:08.609Z,54.60
2019-05-26T22:07:36.878Z,54.60
2019-05-26T22:10:06.375Z,54.60
2019-05-26T22:12:34.643Z,54.60
2019-05-26T22:15:02.907Z,54.60
2019-05-26T22:17:31.171Z,54.80
2019-05-26T22:19:59.435Z,54.70
2019-05-26T22:22:28.015Z,54.70
2019-05-26T22:24:56.271Z,54.60
2019-05-26T22:27:24.543Z,54.60
2019-05-26T22:29:52.806Z,54.60
2019-05-26T22:32:21.162Z,55.30
2019-05-26T22:34:49.423Z,54.60
2019-05-26T22:37:17.690Z,54.60
2019-05-26T22:39:45.950Z,54.60
2019-05-26T22:42:14.210Z,54.50
2019-05-26T22:44:42.469Z,54.60
2019-05-26T22:47:10.734Z,54.60
2019-05-26T22:49:39.003Z,54.70
2019-05-26T22:52:07.262Z,54.60
2019-05-26T22:54:35.520Z,54.70
2019-05-26T22:57:03.778Z,54.70
2019-05-26T22:59:32.042Z,54.70
2019-05-26T23:02:00.332Z,54.70
2019-05-26T23:04:28.651Z,54.60
2019-05-26T23:06:56.909Z,54.70
2019-05-26T23:09:25.211Z,54.80
2019-05-26T23:11:53.523Z,54.70
2019-05-26T23:14:21.795Z,54.70
2019-05-26T23:16:50.058Z,54.80
2019-05-26T23:19:20.054Z,54.60
2019-05-26T23:21:48.339Z,54.60
2019-05-26T23:24:16.610Z,54.70
2019-05-26T23:26:44.862Z,54.70
2019-05-26T23:29:13.135Z,54.70
2019-05-26T23:31:41.387Z,54.70
2019-05-26T23:34:09.659Z,54.70
2019-05-26T23:36:37.989Z,54.70
2019-05-26T23:39:06.790Z,54.80
2019-05-26T23:41:35.102Z,54.80
2019-05-26T23:44:03.370Z,54.70
2019-05-26T23:46:32.383Z,54.70
2019-05-26T23:49:00.671Z,54.70
2019-05-26T23:51:28.915Z,54.70
2019-05-26T23:53:59.026Z,54.70
2019-05-26T23:56:27.282Z,54.60
2019-05-26T23:58:55.573Z,54.60
